createdAt,value
2022-08-22T00:02:04.566Z,5.45
2022-08-22T00:02:45.720Z,6.30
2022-08-22T00:02:48.065Z,3.92
2022-08-22T00:02:48.855Z,6.15
2022-08-22T00:03:07.039Z,4.25
2022-08-22T00:03:10.809Z,7.53
2022-08-22T00:03:12.194Z,5.63
2022-08-22T00:05:06.359Z,9.27
2022-08-22T00:08:00.270Z,7.28
2022-08-22T00:10:55.026Z,7.93
2022-08-22T00:13:22.784Z,8.05
2022-08-22T00:15:58.420Z,5.05
2022-08-22T00:18:35.261Z,5.68
2022-08-22T00:21:16.959Z,10.65
2022-08-22T00:24:01.584Z,8.15
2022-08-22T00:26:33.893Z,7.70
2022-08-22T00:31:37.813Z,7.05
2022-08-22T00:34:17.076Z,4.30
2022-08-22T00:37:07.261Z,3.08
2022-08-22T00:39:45.061Z,8.68
2022-08-22T00:42:32.020Z,6.75
2022-08-22T00:45:58.008Z,11.65
2022-08-22T00:48:55.561Z,4.10
2022-08-22T00:51:31.564Z,4.90
2022-08-22T00:53:59.091Z,6.90
2022-08-22T00:56:59.498Z,7.75
2022-08-22T00:59:52.239Z,6.60
2022-08-22T01:02:36.615Z,8.10
2022-08-22T01:05:41.044Z,9.05
2022-08-22T01:08:26.836Z,5.35
2022-08-22T01:11:31.733Z,4.85
2022-08-22T01:14:34.191Z,6.75
2022-08-22T01:17:32.524Z,5.10
2022-08-22T01:20:06.124Z,4.88
2022-08-22T01:22:33.185Z,4.50
2022-08-22T01:25:19.989Z,3.17
2022-08-22T01:28:11.792Z,4.85
2022-08-22T01:31:01.038Z,6.53
2022-08-22T01:33:31.139Z,6.93
2022-08-22T01:35:59.418Z,3.72
2022-08-22T01:38:37.846Z,4.25
2022-08-22T01:41:26.859Z,7.18
2022-08-22T01:44:14.267Z,8.05
2022-08-22T01:47:10.403Z,6.03
2022-08-22T01:49:49.875Z,6.32
2022-08-22T01:52:47.389Z,6.93
2022-08-22T01:55:31.867Z,4.30
2022-08-22T01:58:14.269Z,6.60
2022-08-22T02:01:15.094Z,3.17
2022-08-22T02:04:14.714Z,8.77
2022-08-22T02:06:52.753Z,9.73
2022-08-22T02:09:38.803Z,7.03
2022-08-22T02:12:30.203Z,5.68
2022-08-22T02:15:07.745Z,5.93
2022-08-22T02:18:01.097Z,4.20
2022-08-22T02:21:12.094Z,6.10
2022-08-22T02:24:29.437Z,6.03
2022-08-22T02:27:08.374Z,6.28
2022-08-22T02:29:38.316Z,6.80
2022-08-22T02:32:37.779Z,5.60
2022-08-22T02:35:18.741Z,7.63
2022-08-22T02:38:02.940Z,4.05
2022-08-22T02:41:15.008Z,6.20
2022-08-22T02:44:21.193Z,6.35
2022-08-22T02:47:23.271Z,4.60
2022-08-22T02:50:03.238Z,8.03
2022-08-22T02:52:49.482Z,6.90
2022-08-22T02:55:29.751Z,5.63
2022-08-22T02:58:23.373Z,5.60
2022-08-22T03:00:58.997Z,6.75
2022-08-22T03:03:30.302Z,5.90
2022-08-22T03:06:05.457Z,6.03
2022-08-22T03:08:38.111Z,5.28
2022-08-22T03:11:24.390Z,5.10
2022-08-22T03:14:14.071Z,4.00
2022-08-22T03:17:01.146Z,4.47
2022-08-22T03:19:50.808Z,6.53
2022-08-22T03:22:31.410Z,4.22
2022-08-22T03:25:12.952Z,4.90
2022-08-22T03:27:51.653Z,6.10
2022-08-22T03:30:29.698Z,6.07
2022-08-22T03:33:12.802Z,5.55
2022-08-22T03:35:51.805Z,5.18
2022-08-22T03:38:34.244Z,6.32
2022-08-22T03:41:16.553Z,8.05
2022-08-22T03:44:21.410Z,3.13
2022-08-22T03:46:57.450Z,4.50
2022-08-22T03:49:59.727Z,5.25
2022-08-22T03:53:01.428Z,6.68
2022-08-22T03:55:46.796Z,3.15
2022-08-22T03:58:28.832Z,5.38
2022-08-22T04:01:02.664Z,3.33
2022-08-22T04:03:54.574Z,6.13
2022-08-22T04:06:40.254Z,3.40
2022-08-22T04:09:23.897Z,4.47
2022-08-22T04:12:10.574Z,5.03
2022-08-22T04:15:04.798Z,5.18
2022-08-22T04:17:48.821Z,5.78
2022-08-22T04:20:43.474Z,4.13
2022-08-22T04:23:32.461Z,9.15
2022-08-22T04:26:12.155Z,3.75
2022-08-22T04:28:50.970Z,3.45
2022-08-22T04:31:29.913Z,4.80
2022-08-22T04:34:09.750Z,5.75
2022-08-22T04:36:54.025Z,2.40
2022-08-22T04:39:47.206Z,4.15
2022-08-22T04:42:32.683Z,3.53
2022-08-22T04:45:17.102Z,4.78
2022-08-22T04:48:04.076Z,6.43
2022-08-22T04:50:50.885Z,3.70
2022-08-22T04:53:23.534Z,4.25
2022-08-22T04:56:24.353Z,5.03
2022-08-22T04:59:03.043Z,4.68
2022-08-22T05:01:44.999Z,4.47
2022-08-22T05:04:23.719Z,4.82
2022-08-22T05:07:12.181Z,7.63
2022-08-22T05:09:45.223Z,7.57
2022-08-22T05:12:21.486Z,4.80
2022-08-22T05:15:45.727Z,4.65
2022-08-22T05:18:19.723Z,4.53
2022-08-22T05:20:50.199Z,3.97
2022-08-22T05:23:21.241Z,4.43
2022-08-22T05:25:52.177Z,4.10
2022-08-22T05:28:53.289Z,4.68
2022-08-22T05:31:29.249Z,5.60
2022-08-22T05:34:05.840Z,4.45
2022-08-22T05:36:39.237Z,5.63
2022-08-22T05:39:09.853Z,6.43
2022-08-22T05:41:39.257Z,4.50
2022-08-22T05:44:37.977Z,6.63
2022-08-22T05:47:22.965Z,4.75
2022-08-22T05:50:07.228Z,6.85
2022-08-22T05:52:59.169Z,4.10
2022-08-22T05:55:44.002Z,5.43
2022-08-22T05:58:16.853Z,4.80
2022-08-22T06:00:49.141Z,6.45
2022-08-22T06:05:53.832Z,2.65
2022-08-22T06:08:37.666Z,3.17
2022-08-22T06:11:34.025Z,6.00
2022-08-22T06:14:19.622Z,7.72
2022-08-22T06:17:00.029Z,7.80
2022-08-22T06:19:27.677Z,9.30
2022-08-22T06:21:56.431Z,5.05
2022-08-22T06:24:26.606Z,4.20
2022-08-22T06:26:58.395Z,8.57
2022-08-22T06:29:44.274Z,5.55
2022-08-22T06:32:44.513Z,4.18
2022-08-22T06:35:53.383Z,5.55
2022-08-22T06:38:22.392Z,5.03
2022-08-22T06:40:54.424Z,6.28
2022-08-22T06:43:24.769Z,5.00
2022-08-22T06:45:53.464Z,8.48
2022-08-22T06:48:23.852Z,4.85
2022-08-22T06:50:56.962Z,5.38
2022-08-22T06:53:35.277Z,4.28
2022-08-22T06:56:07.440Z,6.10
2022-08-22T06:58:44.351Z,7.03
2022-08-22T07:01:20.771Z,2.78
2022-08-22T07:03:52.838Z,7.63
2022-08-22T07:06:29.284Z,4.53
2022-08-22T07:08:57.243Z,6.10
2022-08-22T07:11:34.621Z,5.03
2022-08-22T07:14:05.790Z,6.03
2022-08-22T07:16:55.319Z,3.30
2022-08-22T07:19:32.610Z,5.80
2022-08-22T07:22:11.186Z,4.95
2022-08-22T07:24:52.347Z,3.70
2022-08-22T07:28:06.963Z,3.60
2022-08-22T07:30:56.622Z,3.97
2022-08-22T07:33:42.251Z,7.35
2022-08-22T07:36:32.117Z,4.55
2022-08-22T07:39:30.670Z,2.63
2022-08-22T07:42:05.019Z,3.65
2022-08-22T07:45:14.846Z,3.97
2022-08-22T07:48:02.984Z,6.03
2022-08-22T07:50:34.941Z,3.92
2022-08-22T07:53:16.882Z,5.97
2022-08-22T07:55:49.459Z,7.18
2022-08-22T07:58:18.061Z,4.57
2022-08-22T08:00:48.232Z,6.22
2022-08-22T08:03:16.191Z,6.35
2022-08-22T08:05:45.034Z,5.43
2022-08-22T08:08:31.154Z,6.05
2022-08-22T08:11:00.402Z,6.38
2022-08-22T08:13:36.478Z,5.65
2022-08-22T08:16:07.222Z,8.27
2022-08-22T08:18:36.146Z,5.47
2022-08-22T08:21:07.513Z,3.50
2022-08-22T08:23:45.106Z,5.07
2022-08-22T08:26:17.402Z,5.28
2022-08-22T08:31:26.996Z,4.15
2022-08-22T08:34:05.357Z,6.75
2022-08-22T08:36:49.343Z,6.57
2022-08-22T08:39:48.645Z,4.88
2022-08-22T08:42:24.556Z,7.60
2022-08-22T08:45:20.484Z,4.53
2022-08-22T08:48:14.086Z,7.50
2022-08-22T08:50:59.109Z,5.32
2022-08-22T08:54:03.380Z,6.93
2022-08-22T08:56:38.266Z,4.20
2022-08-22T08:59:17.511Z,5.32
2022-08-22T09:02:13.799Z,4.70
2022-08-22T09:08:12.667Z,4.63
2022-08-22T09:10:39.831Z,5.63
2022-08-22T09:13:13.072Z,3.80
2022-08-22T09:15:43.037Z,6.68
2022-08-22T09:19:07.099Z,6.95
2022-08-22T09:21:34.320Z,7.90
2022-08-22T09:24:21.060Z,6.75
2022-08-22T09:27:02.996Z,5.05
2022-08-22T09:29:59.649Z,7.47
2022-08-22T09:32:45.284Z,5.53
2022-08-22T09:35:45.845Z,4.35
2022-08-22T09:38:47.830Z,4.72
2022-08-22T09:41:24.260Z,4.40
2022-08-22T09:44:06.973Z,3.35
2022-08-22T09:47:12.581Z,4.18
2022-08-22T09:50:04.973Z,5.32
2022-08-22T09:53:08.048Z,4.43
2022-08-22T09:55:40.981Z,1.20
2022-08-22T09:58:11.504Z,4.50
2022-08-22T10:01:09.573Z,5.57
2022-08-22T10:03:45.873Z,3.30
2022-08-22T10:06:20.933Z,6.22
2022-08-22T10:09:31.159Z,2.88
2022-08-22T10:12:12.254Z,4.47
2022-08-22T10:15:01.436Z,5.57
2022-08-22T10:17:33.438Z,2.85
2022-08-22T10:20:13.623Z,3.78
2022-08-22T10:22:56.517Z,4.57
2022-08-22T10:25:45.940Z,4.93
2022-08-22T10:28:32.381Z,7.72
2022-08-22T10:31:30.416Z,3.95
2022-08-22T10:34:10.760Z,4.68
2022-08-22T10:36:57.081Z,3.40
2022-08-22T10:39:28.860Z,2.15
2022-08-22T10:42:20.270Z,3.38
2022-08-22T10:45:23.874Z,2.95
2022-08-22T10:48:10.200Z,2.42
2022-08-22T10:50:49.968Z,1.95
2022-08-22T10:53:35.408Z,1.27
2022-08-22T10:56:36.611Z,2.35
2022-08-22T10:59:09.307Z,4.00
2022-08-22T11:01:44.236Z,2.90
2022-08-22T11:04:28.181Z,3.78
2022-08-22T11:06:58.801Z,3.20
2022-08-22T11:09:37.112Z,2.42
2022-08-22T11:12:28.222Z,2.33
2022-08-22T11:15:04.773Z,3.30
2022-08-22T11:17:34.606Z,2.58
2022-08-22T11:20:26.494Z,2.22
2022-08-22T11:23:14.617Z,2.42
2022-08-22T11:25:56.232Z,2.72
2022-08-22T11:28:37.261Z,3.42
2022-08-22T11:31:47.171Z,4.80
2022-08-22T11:34:28.564Z,2.65
2022-08-22T11:37:18.474Z,1.50
2022-08-22T11:40:07.636Z,2.35
2022-08-22T11:43:18.204Z,3.13
2022-08-22T11:45:52.304Z,3.10
2022-08-22T11:48:44.365Z,3.47
2022-08-22T11:51:41.144Z,3.78
2022-08-22T11:54:17.683Z,4.20
2022-08-22T11:57:03.512Z,3.15
2022-08-22T11:59:55.970Z,3.90
2022-08-22T12:07:37.665Z,5.30
2022-08-22T12:10:13.802Z,3.33
2022-08-22T12:13:21.552Z,5.90
2022-08-22T12:16:08.213Z,4.47
2022-08-22T12:18:52.943Z,5.07
2022-08-22T12:21:26.172Z,4.75
2022-08-22T12:24:19.195Z,2.38
2022-08-22T12:27:18.311Z,4.40
2022-08-22T12:30:12.967Z,3.40
2022-08-22T12:33:23.003Z,2.60
2022-08-22T12:36:18.426Z,3.53
2022-08-22T12:39:29.305Z,1.52
2022-08-22T12:42:21.058Z,3.55
2022-08-22T12:45:00.201Z,8.33
2022-08-22T12:47:36.934Z,2.83
2022-08-22T12:50:18.362Z,3.08
2022-08-22T12:53:03.460Z,2.90
2022-08-22T12:55:51.094Z,2.70
2022-08-22T12:58:34.018Z,3.47
2022-08-22T13:01:06.744Z,2.10
2022-08-22T13:04:01.274Z,2.85
2022-08-22T13:06:38.111Z,2.35
2022-08-22T13:09:18.910Z,2.95
2022-08-22T13:11:49.604Z,1.77
2022-08-22T13:14:25.969Z,2.60
2022-08-22T13:16:58.023Z,2.58
2022-08-22T13:19:33.237Z,2.47
2022-08-22T13:22:08.509Z,1.35
2022-08-22T13:25:14.460Z,0.88
2022-08-22T13:27:51.019Z,2.75
2022-08-22T13:30:38.699Z,1.80
2022-08-22T13:33:16.394Z,3.65
2022-08-22T13:35:52.289Z,3.30
2022-08-22T13:38:25.779Z,3.45
2022-08-22T13:40:55.819Z,1.80
2022-08-22T13:43:28.336Z,1.67
2022-08-22T13:46:07.249Z,3.22
2022-08-22T13:48:47.033Z,2.92
2022-08-22T13:51:34.428Z,3.28
2022-08-22T13:54:27.127Z,3.45
2022-08-22T13:57:15.417Z,3.90
2022-08-22T13:59:55.423Z,4.65
2022-08-22T14:02:46.950Z,2.45
2022-08-22T14:05:26.490Z,5.45
2022-08-22T14:08:15.520Z,2.88
2022-08-22T14:11:06.870Z,1.42
2022-08-22T14:13:38.261Z,5.30
2022-08-22T14:16:12.293Z,2.65
2022-08-22T14:18:49.607Z,6.53
2022-08-22T14:21:40.058Z,4.95
2022-08-22T14:24:18.986Z,5.25
2022-08-22T14:26:59.994Z,3.53
2022-08-22T14:29:50.147Z,4.20
2022-08-22T14:32:25.842Z,5.43
2022-08-22T14:35:23.258Z,3.92
2022-08-22T14:38:17.299Z,3.95
2022-08-22T14:40:47.187Z,4.35
2022-08-22T14:43:29.709Z,5.85
2022-08-22T14:46:08.244Z,2.85
2022-08-22T14:49:18.623Z,4.10
2022-08-22T14:52:06.807Z,3.45
2022-08-22T14:54:37.333Z,2.83
2022-08-22T14:57:20.499Z,3.40
2022-08-22T14:59:52.979Z,2.55
2022-08-22T15:02:30.977Z,4.68
2022-08-22T15:05:11.520Z,4.72
2022-08-22T15:07:40.307Z,4.45
2022-08-22T15:10:23.508Z,4.35
2022-08-22T15:12:54.075Z,3.13
2022-08-22T15:15:52.790Z,2.83
2022-08-22T15:18:28.143Z,6.07
2022-08-22T15:21:08.942Z,3.50
2022-08-22T15:23:45.430Z,4.13
2022-08-22T15:26:34.264Z,1.70
2022-08-22T15:29:05.198Z,2.47
2022-08-22T15:31:34.286Z,2.95
2022-08-22T15:34:12.426Z,3.80
2022-08-22T15:37:09.092Z,2.47
2022-08-22T15:40:02.989Z,1.75
2022-08-22T15:42:39.518Z,2.10
2022-08-22T15:45:08.457Z,2.63
2022-08-22T15:47:41.921Z,2.00
2022-08-22T15:50:27.374Z,2.90
2022-08-22T15:53:20.896Z,1.58
2022-08-22T15:56:05.486Z,3.83
2022-08-22T15:58:37.344Z,2.78
2022-08-22T16:01:18.900Z,2.78
2022-08-22T16:06:52.765Z,5.68
2022-08-22T16:09:35.820Z,2.65
2022-08-22T16:12:09.784Z,2.25
2022-08-22T16:14:37.008Z,2.97
2022-08-22T16:17:04.542Z,3.35
2022-08-22T16:19:34.139Z,2.28
2022-08-22T16:22:02.772Z,3.33
2022-08-22T16:24:33.843Z,2.88
2022-08-22T16:27:18.900Z,1.52
2022-08-22T16:29:46.883Z,1.73
2022-08-22T16:32:26.146Z,2.05
2022-08-22T16:34:53.423Z,3.85
2022-08-22T16:37:49.225Z,3.00
2022-08-22T16:40:22.199Z,2.05
2022-08-22T16:43:13.883Z,1.52
2022-08-22T16:45:45.707Z,2.03
2022-08-22T16:48:36.447Z,4.35
2022-08-22T16:51:18.656Z,2.28
2022-08-22T16:54:07.435Z,4.88
2022-08-22T16:57:07.806Z,4.53
2022-08-22T17:00:13.279Z,2.35
2022-08-22T17:02:58.393Z,8.05
2022-08-22T17:05:51.626Z,2.67
2022-08-22T17:08:54.277Z,1.58
2022-08-22T17:11:43.970Z,2.25
2022-08-22T17:14:41.912Z,2.83
2022-08-22T17:17:17.159Z,2.72
2022-08-22T17:19:50.139Z,5.40
2022-08-22T17:22:29.335Z,1.42
2022-08-22T17:25:22.560Z,2.08
2022-08-22T17:28:04.449Z,3.88
2022-08-22T17:31:02.217Z,3.75
2022-08-22T17:33:41.655Z,1.45
2022-08-22T17:36:31.923Z,3.13
2022-08-22T17:39:34.135Z,3.47
2022-08-22T17:42:25.382Z,2.97
2022-08-22T17:45:28.309Z,3.88
2022-08-22T17:48:02.714Z,1.83
2022-08-22T17:50:46.075Z,1.45
2022-08-22T17:53:37.904Z,2.80
2022-08-22T17:56:22.565Z,1.23
2022-08-22T17:59:25.677Z,3.78
2022-08-22T18:02:16.801Z,2.85
2022-08-22T18:04:52.324Z,4.97
2022-08-22T18:07:39.940Z,2.50
2022-08-22T18:10:22.336Z,1.70
2022-08-22T18:12:56.537Z,3.13
2022-08-22T18:15:29.223Z,1.52
2022-08-22T18:18:15.643Z,3.97
2022-08-22T18:21:07.324Z,2.55
2022-08-22T18:23:41.529Z,2.78
2022-08-22T18:26:29.470Z,1.02
2022-08-22T18:29:08.836Z,1.60
2022-08-22T18:31:38.456Z,2.65
2022-08-22T18:34:32.470Z,1.83
2022-08-22T18:37:07.530Z,1.88
2022-08-22T18:39:56.407Z,2.03
2022-08-22T18:42:30.230Z,1.77
2022-08-22T18:44:57.776Z,2.75
2022-08-22T18:47:27.488Z,2.65
2022-08-22T18:49:56.098Z,0.75
2022-08-22T18:52:34.188Z,2.22
2022-08-22T18:55:04.551Z,2.10
2022-08-22T18:58:05.970Z,2.55
2022-08-22T19:00:58.316Z,1.67
2022-08-22T19:03:49.246Z,1.88
2022-08-22T19:06:25.714Z,1.73
2022-08-22T19:09:25.340Z,0.70
2022-08-22T19:12:15.585Z,0.80
2022-08-22T19:15:21.258Z,3.63
2022-08-22T19:18:02.731Z,0.90
2022-08-22T19:20:57.701Z,2.17
2022-08-22T19:23:43.728Z,2.25
2022-08-22T19:26:37.929Z,3.53
2022-08-22T19:29:27.486Z,1.67
2022-08-22T19:32:06.741Z,2.00
2022-08-22T19:34:47.840Z,1.38
2022-08-22T19:37:31.088Z,1.50
2022-08-22T19:40:02.963Z,0.85
2022-08-22T19:42:36.019Z,2.83
2022-08-22T19:45:19.114Z,2.80
2022-08-22T19:47:59.304Z,0.68
2022-08-22T19:50:32.865Z,1.65
2022-08-22T19:53:29.353Z,0.60
2022-08-22T19:56:21.561Z,0.73
2022-08-22T19:59:07.485Z,1.27
2022-08-22T20:01:58.152Z,1.00
2022-08-22T20:04:41.796Z,1.40
2022-08-22T20:07:15.284Z,0.90
2022-08-22T20:09:56.242Z,1.77
2022-08-22T20:12:29.419Z,0.63
2022-08-22T20:14:57.325Z,1.17
2022-08-22T20:17:24.569Z,0.50
2022-08-22T20:22:53.241Z,1.05
2022-08-22T20:25:42.698Z,0.75
2022-08-22T20:28:39.663Z,1.08
2022-08-22T20:31:12.446Z,1.65
2022-08-22T20:33:46.134Z,1.15
2022-08-22T20:36:28.153Z,1.35
2022-08-22T20:39:08.010Z,1.40
2022-08-22T20:41:45.942Z,0.93
2022-08-22T20:44:43.101Z,0.68
2022-08-22T20:47:20.635Z,0.70
2022-08-22T20:49:58.584Z,0.90
2022-08-22T20:52:39.132Z,0.70
2022-08-22T20:55:09.082Z,1.10
2022-08-22T20:57:55.078Z,0.65
2022-08-22T21:00:25.943Z,0.55
2022-08-22T21:03:11.398Z,0.70
2022-08-22T21:05:44.644Z,0.68
2022-08-22T21:08:20.089Z,0.60
2022-08-22T21:11:22.204Z,1.38
2022-08-22T21:13:49.909Z,0.75
2022-08-22T21:16:32.070Z,0.80
2022-08-22T21:19:03.432Z,1.02
2022-08-22T21:21:35.195Z,1.03
2022-08-22T21:24:06.114Z,1.05
2022-08-22T21:26:38.694Z,1.70
2022-08-22T21:29:18.483Z,0.90
2022-08-22T21:31:56.236Z,2.17
2022-08-22T21:34:47.527Z,0.80
2022-08-22T21:37:48.044Z,2.25
2022-08-22T21:40:23.924Z,1.75
2022-08-22T21:43:27.185Z,2.38
2022-08-22T21:45:54.587Z,1.95
2022-08-22T21:48:33.777Z,2.38
2022-08-22T21:51:31.812Z,1.40
2022-08-22T21:54:29.970Z,1.88
2022-08-22T21:57:17.102Z,1.08
2022-08-22T21:59:52.309Z,2.05
2022-08-22T22:02:34.222Z,1.33
2022-08-22T22:05:11.344Z,0.90
2022-08-22T22:07:41.622Z,0.63
2022-08-22T22:10:11.305Z,0.80
2022-08-22T22:12:41.230Z,0.73
2022-08-22T22:15:12.841Z,1.00
2022-08-22T22:17:40.003Z,0.80
2022-08-22T22:20:07.878Z,0.80
2022-08-22T22:22:37.016Z,1.17
2022-08-22T22:25:38.876Z,0.82
2022-08-22T22:28:00.015Z,0.65
2022-08-22T22:30:27.322Z,0.50
2022-08-22T22:32:54.499Z,1.10
2022-08-22T22:35:22.154Z,0.70
2022-08-22T22:37:49.362Z,0.70
2022-08-22T22:40:16.755Z,0.50
2022-08-22T22:42:44.248Z,0.50
2022-08-22T22:45:11.524Z,1.10
2022-08-22T22:47:38.884Z,0.70
2022-08-22T22:50:07.062Z,1.50
2022-08-22T22:52:34.991Z,2.00
2022-08-22T22:55:08.954Z,1.13
2022-08-22T22:57:41.381Z,0.65
2022-08-22T23:00:12.848Z,1.23
2022-08-22T23:02:40.769Z,1.33
2022-08-22T23:05:09.993Z,1.20
2022-08-22T23:07:37.966Z,1.30
2022-08-22T23:10:07.159Z,1.73
2022-08-22T23:12:36.915Z,2.10
2022-08-22T23:15:06.479Z,1.35
2022-08-22T23:17:35.175Z,1.23
2022-08-22T23:20:02.441Z,0.60
2022-08-22T23:22:30.798Z,0.75
2022-08-22T23:24:58.056Z,0.77
2022-08-22T23:27:25.403Z,0.88
2022-08-22T23:29:53.404Z,2.60
2022-08-22T23:32:20.703Z,0.60
2022-08-22T23:34:48.831Z,1.02
2022-08-22T23:37:19.016Z,1.27
2022-08-22T23:39:46.911Z,0.95
2022-08-22T23:42:16.010Z,1.13
2022-08-22T23:44:45.315Z,0.90
2022-08-22T23:47:13.958Z,0.50
2022-08-22T23:49:42.319Z,0.43
2022-08-22T23:52:11.465Z,0.45
2022-08-22T23:54:38.948Z,1.83
2022-08-22T23:57:12.063Z,1.63
2022-08-22T23:59:46.309Z,0.47
